Time;durP1;ratioP1;P1;durP2;ratioP2;P2;SDS_P1;SDS_P2;PMS_P1;PMS_P2;Temp;Humidity;BMP_temperature;BMP_pressure;BME280_temperature;BME280_humidity;BME280_pressure;Samples;Min_cycle;Max_cycle;Signal;HPM_P1;HPM_P2
2022/03/20 00:00:53;;;;;;;10.48;4.88;;;16.10;62.40;;;;;;2027767;28;20201;-73
2022/03/20 00:01:52;;;;;;;11.82;5.45;;;16.00;62.30;;;;;;2028210;28;20677;-74
2022/03/20 00:02:50;;;;;;;11.13;4.73;;;16.00;62.30;;;;;;2019737;28;20183;-74
2022/03/20 00:03:49;;;;;;;10.60;4.90;;;16.00;62.30;;;;;;2019833;28;20206;-73
2022/03/20 00:04:47;;;;;;;7.97;4.00;;;16.00;62.30;;;;;;2027475;28;20171;-73
2022/03/20 00:05:47;;;;;;;9.40;5.20;;;16.00;62.30;;;;;;2028075;28;20511;-73
2022/03/20 00:06:47;;;;;;;8.05;5.05;;;16.00;62.30;;;;;;2028266;28;20163;-72
2022/03/20 00:07:46;;;;;;;8.43;4.93;;;16.00;62.30;;;;;;2028268;28;20171;-73
2022/03/20 00:08:44;;;;;;;11.37;4.90;;;16.00;62.20;;;;;;2028366;28;20163;-75
2022/03/20 00:09:44;;;;;;;10.00;4.93;;;16.00;62.30;;;;;;2028369;28;20159;-73
2022/03/20 00:10:48;;;;;;;6.93;3.92;;;16.00;62.30;;;;;;2028497;28;20250;-72
2022/03/20 00:11:46;;;;;;;8.75;4.68;;;16.00;62.40;;;;;;2028726;28;20168;-73
2022/03/20 00:12:46;;;;;;;14.93;5.83;;;16.00;62.40;;;;;;2031120;28;20171;-75
2022/03/20 00:13:45;;;;;;;9.80;4.63;;;16.00;62.30;;;;;;2030354;28;20229;-74
2022/03/20 00:14:44;;;;;;;8.40;4.33;;;16.00;62.30;;;;;;2031218;28;20631;-74
2022/03/20 00:15:44;;;;;;;15.10;6.13;;;16.00;62.40;;;;;;2030984;28;20196;-73
2022/03/20 00:16:43;;;;;;;11.02;5.50;;;16.00;62.30;;;;;;2030909;28;20194;-73
2022/03/20 00:17:41;;;;;;;15.53;5.23;;;16.00;62.30;;;;;;2031110;28;20171;-73
2022/03/20 00:18:41;;;;;;;7.70;4.50;;;16.00;62.20;;;;;;2030979;28;20173;-73
2022/03/20 00:19:39;;;;;;;6.85;4.53;;;16.00;62.20;;;;;;2030868;28;20162;-73
2022/03/20 00:20:43;;;;;;;13.60;5.53;;;16.00;62.30;;;;;;2030375;28;20182;-75
2022/03/20 00:21:41;;;;;;;9.52;5.88;;;16.00;62.40;;;;;;2030446;28;20253;-73
2022/03/20 00:22:40;;;;;;;7.20;4.37;;;16.00;62.40;;;;;;2031012;28;20174;-76
2022/03/20 00:23:38;;;;;;;9.60;5.10;;;16.00;62.30;;;;;;2031164;28;20236;-74
2022/03/20 00:24:40;;;;;;;10.30;5.03;;;16.00;62.30;;;;;;2031304;28;20202;-72
2022/03/20 00:25:42;;;;;;;9.75;4.95;;;16.00;62.40;;;;;;2031145;28;20175;-74
2022/03/20 00:26:41;;;;;;;11.57;5.32;;;16.00;62.30;;;;;;2031082;28;20667;-74
2022/03/20 00:27:40;;;;;;;9.18;5.32;;;16.00;62.30;;;;;;2031012;28;20187;-73
2022/03/20 00:28:38;;;;;;;9.57;5.73;;;16.00;62.40;;;;;;2030392;28;20179;-75
2022/03/20 00:29:38;;;;;;;7.17;4.13;;;16.00;62.40;;;;;;2031006;28;20175;-76
2022/03/20 00:30:37;;;;;;;9.13;4.63;;;15.90;62.40;;;;;;2031026;28;20198;-76
2022/03/20 00:31:35;;;;;;;15.85;5.72;;;15.90;62.40;;;;;;2031026;28;20224;-76
2022/03/20 00:32:34;;;;;;;6.63;4.43;;;15.90;62.40;;;;;;2030279;28;20220;-75
2022/03/20 00:33:32;;;;;;;8.87;4.90;;;15.90;62.60;;;;;;2030485;28;20175;-75
2022/03/20 00:34:31;;;;;;;12.63;5.07;;;15.80;62.60;;;;;;2031053;28;20599;-75
2022/03/20 00:35:31;;;;;;;12.63;4.80;;;15.80;62.60;;;;;;2030356;28;20702;-76
2022/03/20 00:36:29;;;;;;;10.88;5.65;;;15.80;62.40;;;;;;2030433;28;20713;-74
2022/03/20 00:37:28;;;;;;;5.10;3.73;;;15.80;62.30;;;;;;2031018;28;20623;-76
2022/03/20 00:38:28;;;;;;;7.20;4.43;;;15.80;62.20;;;;;;2030928;28;20175;-74
2022/03/20 00:39:27;;;;;;;6.93;3.97;;;15.80;62.20;;;;;;2030957;28;20567;-74
2022/03/20 00:40:25;;;;;;;11.93;4.90;;;15.70;62.00;;;;;;2030986;28;20228;-75
2022/03/20 00:41:24;;;;;;;7.00;4.07;;;15.70;62.00;;;;;;2031079;28;20179;-75
2022/03/20 00:42:23;;;;;;;8.30;4.30;;;15.70;62.00;;;;;;2030181;28;20198;-74
2022/03/20 00:43:21;;;;;;;9.10;4.20;;;15.70;62.00;;;;;;2030440;28;20182;-74
2022/03/20 00:44:20;;;;;;;7.57;4.13;;;15.70;61.90;;;;;;2031028;28;20183;-75
2022/03/20 00:45:18;;;;;;;11.83;4.53;;;15.70;61.90;;;;;;2030884;28;20179;-75
2022/03/20 00:46:17;;;;;;;11.33;4.90;;;15.70;61.80;;;;;;2030840;28;20185;-74
2022/03/20 00:47:15;;;;;;;11.50;4.00;;;15.70;61.90;;;;;;2030907;28;20178;-74
2022/03/20 00:48:14;;;;;;;8.00;4.83;;;15.70;61.80;;;;;;2031057;28;20245;-74
2022/03/20 00:49:13;;;;;;;7.73;4.00;;;15.60;61.70;;;;;;2030902;28;20579;-74
2022/03/20 00:50:13;;;;;;;6.57;4.10;;;15.60;61.80;;;;;;2030885;28;20203;-74
2022/03/20 00:51:13;;;;;;;8.38;3.80;;;15.70;61.90;;;;;;2030270;28;20562;-74
2022/03/20 00:52:12;;;;;;;10.80;4.80;;;15.70;61.80;;;;;;2030197;28;20183;-74
2022/03/20 00:53:10;;;;;;;6.90;4.73;;;15.60;61.70;;;;;;2030879;28;20182;-75
2022/03/20 00:54:10;;;;;;;8.00;4.77;;;15.60;61.70;;;;;;2031120;28;20178;-75
2022/03/20 00:55:09;;;;;;;6.80;4.45;;;15.60;61.70;;;;;;2030865;28;20258;-74
2022/03/20 00:56:08;;;;;;;9.00;4.50;;;15.60;61.70;;;;;;2030893;28;20175;-76
2022/03/20 00:57:06;;;;;;;6.13;4.10;;;15.60;61.70;;;;;;2030929;28;20225;-75
2022/03/20 00:58:05;;;;;;;10.67;4.93;;;15.60;61.70;;;;;;2030966;28;20182;-75
2022/03/20 00:59:04;;;;;;;8.87;4.80;;;15.60;61.80;;;;;;2030863;28;20741;-75
2022/03/20 01:00:03;;;;;;;8.53;4.20;;;15.60;61.70;;;;;;2030353;28;20312;-77
2022/03/20 01:01:04;;;;;;;6.22;3.90;;;15.60;61.70;;;;;;2022137;28;20425;-75
2022/03/20 01:02:04;;;;;;;8.43;4.15;;;15.60;61.60;;;;;;2029906;28;20289;-75
2022/03/20 01:03:03;;;;;;;7.70;4.82;;;15.50;61.60;;;;;;2038382;28;20192;-75
2022/03/20 01:04:01;;;;;;;6.77;4.00;;;15.50;61.70;;;;;;2030112;28;20178;-75
2022/03/20 01:05:00;;;;;;;7.83;4.27;;;15.50;61.50;;;;;;2030312;28;20182;-76
2022/03/20 01:05:58;;;;;;;6.87;4.43;;;15.60;61.80;;;;;;2030881;28;20175;-75
2022/03/20 01:07:01;;;;;;;9.73;4.90;;;15.50;61.60;;;;;;2030974;28;20635;-75
2022/03/20 01:08:00;;;;;;;6.93;4.75;;;15.50;61.50;;;;;;2030235;28;20173;-74
2022/03/20 01:08:58;;;;;;;7.90;4.20;;;15.50;61.60;;;;;;2030350;28;20583;-74
2022/03/20 01:10:01;;;;;;;6.77;4.17;;;15.50;61.60;;;;;;2030017;28;20175;-75
2022/03/20 01:10:59;;;;;;;6.93;4.18;;;15.50;61.60;;;;;;2030294;28;20221;-75
2022/03/20 01:11:58;;;;;;;9.13;4.77;;;15.50;61.50;;;;;;2030248;28;20616;-75
2022/03/20 01:12:57;;;;;;;5.70;4.00;;;15.50;61.50;;;;;;2030747;28;20178;-75
2022/03/20 01:13:55;;;;;;;7.87;4.10;;;15.50;61.50;;;;;;2030828;28;20175;-75
2022/03/20 01:14:54;;;;;;;8.60;4.33;;;15.50;61.40;;;;;;2030913;28;20242;-75
2022/03/20 01:15:53;;;;;;;10.57;5.53;;;15.50;61.50;;;;;;2030812;28;20206;-75
2022/03/20 01:16:54;;;;;;;8.50;4.40;;;15.50;61.50;;;;;;2030851;28;20183;-75
2022/03/20 01:17:53;;;;;;;6.50;4.13;;;15.50;61.50;;;;;;2030888;28;20401;-75
2022/03/20 01:18:51;;;;;;;7.53;3.90;;;15.50;61.50;;;;;;2030845;28;20254;-75
2022/03/20 01:19:51;;;;;;;8.00;4.60;;;15.60;61.60;;;;;;2030617;28;20166;-75
2022/03/20 01:20:49;;;;;;;6.82;3.55;;;15.50;61.50;;;;;;2030827;28;20151;-75
2022/03/20 01:21:48;;;;;;;9.00;4.53;;;15.50;61.50;;;;;;2030692;28;20175;-75
2022/03/20 01:22:46;;;;;;;8.27;4.70;;;15.50;61.50;;;;;;2030910;28;20163;-75
2022/03/20 01:23:45;;;;;;;9.07;4.57;;;15.50;61.40;;;;;;2029215;28;20577;-75
2022/03/20 01:24:44;;;;;;;6.03;4.33;;;15.50;61.30;;;;;;2029821;28;20185;-76
2022/03/20 01:25:42;;;;;;;8.03;5.17;;;15.50;61.50;;;;;;2029617;28;20663;-75
2022/03/20 01:26:41;;;;;;;10.90;4.60;;;15.40;61.20;;;;;;2029449;28;20167;-74
2022/03/20 01:27:39;;;;;;;10.17;4.37;;;15.50;61.50;;;;;;2029596;28;20167;-74
2022/03/20 01:28:38;;;;;;;9.47;5.07;;;15.50;61.40;;;;;;2029513;28;20580;-75
2022/03/20 01:29:36;;;;;;;13.43;3.97;;;15.40;61.40;;;;;;2029583;28;20178;-74
2022/03/20 01:30:35;;;;;;;6.30;4.20;;;15.40;61.40;;;;;;2029425;28;20207;-75
2022/03/20 01:31:35;;;;;;;6.53;3.83;;;15.40;61.40;;;;;;2029438;28;20250;-75
2022/03/20 01:32:33;;;;;;;9.30;4.30;;;15.40;61.40;;;;;;2029541;28;20640;-76
2022/03/20 01:33:32;;;;;;;8.17;4.50;;;15.40;61.40;;;;;;2028829;28;20488;-75
2022/03/20 01:34:31;;;;;;;8.18;4.50;;;15.40;61.30;;;;;;2020844;28;20175;-75
2022/03/20 01:35:30;;;;;;;7.27;4.70;;;15.40;61.50;;;;;;2028474;28;20179;-74
2022/03/20 01:36:28;;;;;;;15.10;4.93;;;15.40;61.40;;;;;;2028409;28;20217;-75
2022/03/20 01:37:27;;;;;;;6.33;4.07;;;15.50;61.50;;;;;;2028838;28;20797;-76
2022/03/20 01:38:25;;;;;;;6.33;4.13;;;15.50;61.50;;;;;;2029277;28;20175;-75
2022/03/20 01:39:24;;;;;;;6.33;4.30;;;15.40;61.30;;;;;;2029603;28;20171;-75
2022/03/20 01:40:23;;;;;;;7.90;4.90;;;15.40;61.40;;;;;;2029497;28;20575;-75
2022/03/20 01:41:23;;;;;;;6.57;3.80;;;15.50;61.50;;;;;;2029535;28;20405;-75
2022/03/20 01:42:22;;;;;;;5.95;4.15;;;15.40;61.30;;;;;;2029710;28;20229;-75
2022/03/20 01:43:20;;;;;;;10.52;3.70;;;15.40;61.30;;;;;;2029798;28;20171;-75
2022/03/20 01:44:19;;;;;;;7.67;4.90;;;15.40;61.30;;;;;;2029960;28;20635;-76
2022/03/20 01:45:21;;;;;;;7.27;4.40;;;15.40;61.30;;;;;;2030192;28;20528;-75
2022/03/20 01:46:20;;;;;;;13.07;4.57;;;15.40;61.40;;;;;;2030137;28;20171;-74
2022/03/20 01:47:18;;;;;;;6.75;4.10;;;15.40;61.20;;;;;;2030894;28;20178;-74
2022/03/20 01:48:18;;;;;;;8.00;4.10;;;15.40;61.20;;;;;;2036186;28;20195;-74
2022/03/20 01:49:17;;;;;;;5.55;3.78;;;15.40;61.30;;;;;;2037982;28;20196;-76
2022/03/20 01:50:17;;;;;;;6.50;3.73;;;15.40;61.30;;;;;;2037814;28;20211;-76
2022/03/20 01:51:16;;;;;;;10.73;4.38;;;15.40;61.20;;;;;;2037676;28;20194;-76
2022/03/20 01:52:24;;;;;;;7.65;4.05;;;15.40;61.20;;;;;;2031699;28;20226;-75
2022/03/20 01:53:22;;;;;;;7.43;3.67;;;15.40;61.30;;;;;;2029903;28;20147;-75
2022/03/20 01:54:21;;;;;;;7.27;4.57;;;15.40;61.30;;;;;;2030158;28;20622;-74
2022/03/20 01:55:22;;;;;;;7.28;4.03;;;15.40;61.30;;;;;;2029794;28;20220;-74
2022/03/20 01:56:22;;;;;;;9.55;4.82;;;15.40;61.30;;;;;;2029420;28;20266;-74
2022/03/20 01:57:22;;;;;;;6.68;3.83;;;15.40;61.40;;;;;;2029323;28;20174;-75
2022/03/20 01:58:21;;;;;;;7.68;4.10;;;15.40;61.40;;;;;;2029461;28;20504;-75
2022/03/20 01:59:20;;;;;;;10.37;5.10;;;15.30;61.30;;;;;;2029301;28;20178;-75
2022/03/20 02:00:20;;;;;;;7.03;4.07;;;15.50;61.40;;;;;;2029347;28;20572;-75
2022/03/20 02:01:18;;;;;;;9.25;4.57;;;15.30;61.30;;;;;;2029459;28;20413;-75
2022/03/20 02:02:18;;;;;;;5.10;3.57;;;15.30;61.30;;;;;;2029161;28;20585;-75
2022/03/20 02:03:16;;;;;;;7.18;4.40;;;15.40;61.40;;;;;;2029229;28;20250;-75
2022/03/20 02:04:15;;;;;;;6.97;4.10;;;15.40;61.40;;;;;;2029341;28;20179;-74
2022/03/20 02:05:14;;;;;;;10.68;3.80;;;15.40;61.30;;;;;;2029324;28;20618;-74
2022/03/20 02:06:13;;;;;;;7.47;4.53;;;15.40;61.30;;;;;;2029258;28;20199;-74
2022/03/20 02:07:12;;;;;;;8.50;4.60;;;15.40;61.30;;;;;;2028567;28;20221;-76
2022/03/20 02:08:12;;;;;;;7.53;3.85;;;15.40;61.30;;;;;;2028713;28;20235;-74
2022/03/20 02:09:11;;;;;;;5.78;3.95;;;15.40;61.30;;;;;;2029296;28;20191;-75
2022/03/20 02:10:11;;;;;;;9.48;4.32;;;15.40;61.20;;;;;;2029431;28;20195;-75
2022/03/20 02:11:09;;;;;;;7.50;4.13;;;15.40;61.20;;;;;;2028872;28;20198;-75
2022/03/20 02:12:10;;;;;;;5.53;3.97;;;15.40;61.30;;;;;;2028485;28;20214;-75
2022/03/20 02:13:09;;;;;;;7.38;4.93;;;15.40;61.20;;;;;;2029312;28;20304;-74
2022/03/20 02:14:09;;;;;;;4.85;3.83;;;15.40;61.30;;;;;;2029303;28;20175;-75
2022/03/20 02:15:14;;;;;;;5.15;3.83;;;15.40;61.30;;;;;;2029377;28;20565;-74
2022/03/20 02:16:13;;;;;;;6.45;4.20;;;15.40;61.40;;;;;;2029405;28;20167;-74
2022/03/20 02:17:12;;;;;;;6.77;3.97;;;15.30;61.20;;;;;;2029350;28;20167;-74
2022/03/20 02:18:11;;;;;;;5.97;4.20;;;15.30;61.20;;;;;;2028918;28;20567;-75
2022/03/20 02:19:13;;;;;;;6.40;3.75;;;15.30;61.20;;;;;;2028839;28;20678;-76
2022/03/20 02:20:13;;;;;;;6.22;4.25;;;15.40;61.30;;;;;;2029120;28;20227;-74
2022/03/20 02:21:11;;;;;;;9.85;4.75;;;15.30;61.20;;;;;;2029417;28;20186;-75
2022/03/20 02:22:09;;;;;;;8.13;4.20;;;15.30;61.20;;;;;;2029228;28;20285;-74
2022/03/20 02:23:08;;;;;;;6.17;4.10;;;15.30;61.20;;;;;;2029334;28;20277;-74
2022/03/20 02:24:33;;;;;;;6.50;4.00;;;15.30;61.20;;;;;;2029111;28;20175;-74
2022/03/20 02:25:32;;;;;;;6.88;3.85;;;15.30;60.90;;;;;;2029254;28;20160;-75
2022/03/20 02:26:31;;;;;;;9.43;4.50;;;15.30;61.20;;;;;;2029582;28;20178;-75
2022/03/20 02:27:32;;;;;;;8.10;3.70;;;15.30;61.20;;;;;;2029280;28;20413;-75
2022/03/20 02:28:30;;;;;;;6.38;4.22;;;15.30;61.20;;;;;;2029309;28;20164;-75
2022/03/20 02:29:28;;;;;;;5.90;3.80;;;15.30;61.10;;;;;;2029559;28;20262;-76
2022/03/20 02:30:30;;;;;;;5.73;4.37;;;15.30;61.10;;;;;;2029113;28;20195;-76
2022/03/20 02:31:29;;;;;;;4.93;3.58;;;15.30;61.10;;;;;;2029159;28;20172;-75
2022/03/20 02:32:32;;;;;;;4.77;3.57;;;15.30;61.20;;;;;;2029235;28;20254;-75
2022/03/20 02:33:30;;;;;;;5.40;3.90;;;15.30;61.20;;;;;;2033811;28;20620;-76
2022/03/20 02:34:30;;;;;;;8.13;3.90;;;15.30;61.20;;;;;;2029128;28;20269;-75
2022/03/20 02:35:32;;;;;;;10.50;4.05;;;15.30;61.20;;;;;;2027950;28;20225;-75
2022/03/20 02:36:31;;;;;;;6.28;3.72;;;15.30;61.30;;;;;;2028469;28;20254;-75
2022/03/20 02:37:31;;;;;;;6.35;4.10;;;15.30;61.30;;;;;;2029125;28;20517;-75
2022/03/20 02:38:29;;;;;;;7.03;4.28;;;15.30;61.30;;;;;;2028986;28;20673;-75
2022/03/20 02:39:29;;;;;;;5.17;3.50;;;15.30;61.40;;;;;;2029125;28;20253;-75
2022/03/20 02:40:28;;;;;;;6.40;4.25;;;15.30;61.30;;;;;;2029287;28;20516;-76
2022/03/20 02:41:28;;;;;;;6.10;3.90;;;15.30;61.30;;;;;;2029021;28;20182;-75
2022/03/20 02:42:26;;;;;;;5.85;3.83;;;15.30;61.30;;;;;;2029155;28;20289;-76
2022/03/20 02:43:30;;;;;;;5.20;3.87;;;15.30;61.20;;;;;;2029180;28;20257;-75
2022/03/20 02:44:50;;;;;;;7.45;3.80;;;15.30;61.40;;;;;;2029359;28;20740;-75
2022/03/20 02:45:50;;;;;;;5.45;3.80;;;15.30;61.20;;;;;;2029203;28;20160;-75
2022/03/20 02:46:49;;;;;;;6.78;4.22;;;15.30;61.40;;;;;;2029031;28;20163;-75
2022/03/20 02:47:51;;;;;;;5.90;3.83;;;15.30;61.20;;;;;;2029026;28;20205;-75
2022/03/20 02:48:53;;;;;;;8.52;4.45;;;15.30;61.30;;;;;;2028276;28;20262;-75
2022/03/20 02:50:06;;;;;;;5.82;3.72;;;15.30;61.30;;;;;;2028244;28;20182;-75
2022/03/20 02:51:04;;;;;;;6.03;3.95;;;15.20;61.20;;;;;;2028602;28;20155;-74
2022/03/20 02:52:03;;;;;;;7.43;4.13;;;15.20;61.30;;;;;;2028953;28;20575;-75
2022/03/20 02:53:13;;;;;;;6.67;3.83;;;15.20;61.30;;;;;;2029070;28;20175;-75
2022/03/20 02:54:11;;;;;;;5.20;3.70;;;15.30;61.50;;;;;;2029149;28;20143;-75
2022/03/20 02:55:10;;;;;;;4.93;3.50;;;15.20;62.00;;;;;;2029089;28;20179;-75
2022/03/20 02:56:10;;;;;;;5.90;4.00;;;15.20;61.30;;;;;;2029183;28;20523;-76
2022/03/20 02:57:10;;;;;;;5.90;3.78;;;15.20;61.40;;;;;;2028225;28;20203;-75
2022/03/20 02:58:12;;;;;;;8.85;4.05;;;15.30;61.30;;;;;;2028723;28;20636;-75
2022/03/20 02:59:10;;;;;;;6.38;4.28;;;15.20;61.30;;;;;;2029125;28;20167;-75
2022/03/20 03:00:11;;;;;;;5.83;3.43;;;15.30;61.40;;;;;;2028965;28;20222;-75
2022/03/20 03:01:09;;;;;;;8.82;3.65;;;15.20;61.20;;;;;;2028945;28;20178;-75
2022/03/20 03:02:09;;;;;;;6.90;3.40;;;15.30;62.00;;;;;;2028156;28;20214;-75
2022/03/20 03:03:13;;;;;;;4.40;3.28;;;15.20;61.30;;;;;;2028729;28;20182;-76
2022/03/20 03:04:14;;;;;;;7.00;4.05;;;15.20;61.30;;;;;;2028602;28;20251;-74
2022/03/20 03:05:15;;;;;;;4.93;3.67;;;15.20;61.30;;;;;;2028457;28;20509;-76
2022/03/20 03:06:13;;;;;;;6.28;3.60;;;15.20;61.20;;;;;;2029209;28;20260;-75
2022/03/20 03:07:12;;;;;;;6.60;3.73;;;15.20;61.30;;;;;;2029100;28;20566;-75
2022/03/20 03:10:57;;;;;;;4.43;3.33;;;15.20;61.20;;;;;;2029101;28;20190;-75
2022/03/20 03:11:58;;;;;;;6.60;3.67;;;15.20;61.30;;;;;;2029031;28;20195;-75
2022/03/20 03:12:56;;;;;;;5.72;4.00;;;15.20;61.40;;;;;;2029209;28;20167;-75
2022/03/20 03:13:55;;;;;;;5.63;3.80;;;15.20;61.20;;;;;;2029169;28;20206;-74
2022/03/20 03:16:13;;;;;;;8.20;4.10;;;15.20;61.40;;;;;;2028926;28;20183;-75
2022/03/20 03:17:11;;;;;;;5.75;3.80;;;15.20;61.10;;;;;;2028890;28;20201;-75
2022/03/20 03:18:10;;;;;;;4.60;3.60;;;15.20;61.30;;;;;;2028997;28;20169;-75
2022/03/20 03:19:12;;;;;;;4.77;3.50;;;15.20;61.20;;;;;;2028756;28;20663;-75
2022/03/20 03:20:11;;;;;;;6.65;3.97;;;15.20;61.20;;;;;;2028635;28;20245;-74
2022/03/20 03:21:13;;;;;;;5.13;3.03;;;15.20;61.30;;;;;;2028054;28;20187;-74
2022/03/20 03:22:12;;;;;;;5.10;3.15;;;15.20;61.40;;;;;;2028106;28;20672;-75
2022/03/20 03:23:11;;;;;;;4.63;3.40;;;15.20;61.30;;;;;;2028900;28;20256;-75
2022/03/20 03:24:10;;;;;;;4.45;3.45;;;15.20;61.30;;;;;;2027961;28;20182;-75
2022/03/20 03:25:08;;;;;;;4.33;3.53;;;15.20;61.30;;;;;;2028269;28;20266;-75
2022/03/20 03:26:09;;;;;;;6.07;3.93;;;15.20;61.20;;;;;;2028829;28;20179;-74
2022/03/20 03:27:08;;;;;;;6.97;4.00;;;15.20;61.30;;;;;;2028777;28;20174;-75
2022/03/20 03:28:09;;;;;;;5.27;3.80;;;15.20;61.30;;;;;;2029058;28;20179;-75
2022/03/20 03:29:07;;;;;;;5.45;3.53;;;15.10;61.20;;;;;;2029120;28;20505;-75
2022/03/20 03:30:06;;;;;;;5.13;3.50;;;15.10;61.20;;;;;;2028380;28;20167;-75
2022/03/20 03:31:07;;;;;;;5.97;4.03;;;15.10;61.20;;;;;;2029325;28;20503;-75
2022/03/20 03:32:06;;;;;;;5.00;3.38;;;15.20;61.10;;;;;;2029355;28;20250;-74
2022/03/20 03:33:04;;;;;;;7.82;3.60;;;15.10;61.10;;;;;;2028999;28;20175;-75
2022/03/20 03:36:37;;;;;;;6.25;3.55;;;15.10;61.20;;;;;;2030029;28;20656;-76
2022/03/20 03:37:36;;;;;;;6.70;3.70;;;15.10;61.20;;;;;;2029840;28;20164;-75
2022/03/20 03:38:35;;;;;;;4.67;3.37;;;15.10;61.20;;;;;;2029199;28;20548;-76
2022/03/20 03:39:33;;;;;;;5.30;3.20;;;15.10;61.30;;;;;;2029208;28;20281;-76
2022/03/20 03:40:33;;;;;;;5.30;3.47;;;15.20;61.40;;;;;;2029706;28;20175;-75
2022/03/20 03:41:31;;;;;;;4.53;3.30;;;15.10;61.30;;;;;;2029946;28;20203;-75
2022/03/20 03:42:30;;;;;;;6.93;3.90;;;15.10;61.30;;;;;;2028426;28;20193;-75
2022/03/20 03:43:28;;;;;;;6.77;3.70;;;15.10;61.20;;;;;;2028997;28;20232;-75
2022/03/20 03:44:27;;;;;;;5.67;3.30;;;15.10;61.00;;;;;;2029571;28;20175;-75
2022/03/20 03:45:25;;;;;;;5.20;3.70;;;15.10;61.10;;;;;;2030770;28;20185;-75
2022/03/20 03:46:24;;;;;;;5.30;3.40;;;15.10;61.10;;;;;;2030427;28;20175;-76
2022/03/20 03:47:24;;;;;;;5.47;3.63;;;15.10;61.20;;;;;;2029176;28;20183;-76
2022/03/20 03:48:23;;;;;;;6.07;3.42;;;15.10;61.20;;;;;;2029228;28;20171;-75
2022/03/20 03:49:21;;;;;;;5.93;3.63;;;15.10;61.10;;;;;;2029141;28;20187;-75
2022/03/20 03:50:20;;;;;;;4.23;3.17;;;15.10;61.00;;;;;;2029469;28;20206;-76
2022/03/20 03:51:18;;;;;;;6.57;3.93;;;15.10;61.20;;;;;;2030771;28;20205;-75
2022/03/20 03:52:17;;;;;;;5.20;3.07;;;15.10;61.20;;;;;;2030536;28;20273;-75
2022/03/20 03:53:16;;;;;;;5.50;3.57;;;15.10;61.20;;;;;;2031129;28;20175;-75
2022/03/20 03:54:14;;;;;;;7.17;4.47;;;15.10;61.20;;;;;;2030202;28;20273;-76
2022/03/20 03:55:13;;;;;;;5.67;3.63;;;15.20;61.20;;;;;;2030132;28;20211;-75
2022/03/20 03:56:12;;;;;;;5.27;3.23;;;15.20;61.10;;;;;;2029173;28;20167;-75
2022/03/20 03:57:10;;;;;;;4.97;4.47;;;15.10;61.10;;;;;;2029470;28;20834;-76
2022/03/20 03:58:09;;;;;;;5.50;3.00;;;15.10;61.20;;;;;;2029072;28;20733;-75
2022/03/20 03:59:10;;;;;;;4.80;3.70;;;15.10;61.20;;;;;;2029674;28;20175;-76
2022/03/20 04:00:09;;;;;;;4.68;3.08;;;15.10;61.20;;;;;;2029845;28;20504;-75
2022/03/20 04:01:09;;;;;;;6.20;3.80;;;15.10;61.10;;;;;;2029666;28;20183;-76
2022/03/20 04:02:07;;;;;;;6.43;3.88;;;15.10;61.20;;;;;;2029635;28;20194;-75
2022/03/20 04:03:06;;;;;;;7.37;3.20;;;15.10;61.20;;;;;;2029297;28;20704;-75
2022/03/20 04:04:05;;;;;;;4.37;3.70;;;15.10;61.10;;;;;;2029717;28;20256;-75
2022/03/20 04:05:04;;;;;;;5.55;3.15;;;15.10;61.10;;;;;;2030489;28;20206;-75
2022/03/20 04:06:04;;;;;;;13.65;4.03;;;15.10;61.20;;;;;;2031783;28;20179;-75
2022/03/20 04:07:04;;;;;;;3.85;3.20;;;15.10;61.10;;;;;;2030968;28;20171;-75
2022/03/20 04:08:07;;;;;;;6.00;3.70;;;15.10;61.10;;;;;;2031017;28;20182;-75
2022/03/20 04:09:05;;;;;;;5.90;3.63;;;15.10;61.00;;;;;;2032765;28;20171;-75
2022/03/20 04:10:05;;;;;;;4.90;3.33;;;15.10;61.10;;;;;;2031344;28;20235;-76
2022/03/20 04:11:03;;;;;;;4.75;3.63;;;15.10;61.00;;;;;;2032101;28;20257;-75
2022/03/20 04:12:04;;;;;;;5.63;3.80;;;15.10;61.10;;;;;;2030955;28;20203;-74
2022/03/20 04:13:03;;;;;;;4.80;3.70;;;15.10;61.00;;;;;;2031110;28;20186;-75
2022/03/20 04:14:01;;;;;;;5.17;3.37;;;15.10;61.00;;;;;;2031314;28;20203;-75
2022/03/20 04:15:02;;;;;;;7.23;3.37;;;15.10;61.00;;;;;;2030700;28;20425;-74
2022/03/20 04:16:00;;;;;;;6.03;3.10;;;15.10;61.10;;;;;;2030988;28;20634;-73
2022/03/20 04:16:59;;;;;;;6.10;3.20;;;15.10;61.10;;;;;;2034406;28;20202;-75
2022/03/20 04:18:00;;;;;;;5.63;3.20;;;15.00;60.90;;;;;;2036152;28;20201;-75
2022/03/20 04:18:59;;;;;;;5.38;3.30;;;14.90;60.80;;;;;;2036862;28;20205;-75
2022/03/20 04:19:58;;;;;;;4.43;3.30;;;15.10;61.10;;;;;;2036945;28;20197;-75
2022/03/20 04:20:56;;;;;;;5.90;3.50;;;15.10;61.00;;;;;;2036799;28;20158;-74
2022/03/20 04:21:55;;;;;;;8.03;4.03;;;15.00;61.00;;;;;;2036535;28;20199;-73
2022/03/20 04:24:18;;;;;;;5.47;3.60;;;15.00;60.90;;;;;;2037268;28;20242;-75
2022/03/20 04:25:17;;;;;;;6.10;3.03;;;15.10;61.10;;;;;;2037065;28;20155;-74
2022/03/20 04:26:17;;;;;;;5.10;3.57;;;15.10;61.00;;;;;;2036885;28;20197;-75
2022/03/20 04:27:17;;;;;;;3.90;3.03;;;15.10;61.10;;;;;;2037523;28;20167;-75
2022/03/20 04:28:17;;;;;;;3.72;2.88;;;15.10;61.00;;;;;;2037046;28;20182;-75
2022/03/20 04:29:15;;;;;;;6.55;3.70;;;15.00;60.80;;;;;;2035269;28;20187;-75
2022/03/20 04:30:14;;;;;;;5.73;3.67;;;15.00;60.90;;;;;;2037217;28;20210;-74
2022/03/20 04:31:15;;;;;;;5.43;3.70;;;15.00;60.90;;;;;;2036831;28;20202;-75
2022/03/20 04:32:14;;;;;;;5.90;3.60;;;15.10;61.00;;;;;;2037603;28;20194;-74
2022/03/20 04:33:13;;;;;;;5.53;3.40;;;14.90;60.80;;;;;;2037337;28;20174;-74
2022/03/20 04:34:12;;;;;;;5.10;3.30;;;15.00;61.00;;;;;;2036810;28;20428;-74
2022/03/20 04:35:11;;;;;;;5.07;3.08;;;15.00;60.90;;;;;;2036785;28;20196;-75
2022/03/20 04:36:10;;;;;;;7.83;3.50;;;15.10;60.90;;;;;;2037015;28;20244;-74
2022/03/20 04:37:10;;;;;;;4.90;3.37;;;15.00;60.90;;;;;;2033444;28;20532;-74
2022/03/20 04:38:08;;;;;;;4.78;3.33;;;15.00;60.90;;;;;;2032851;28;20412;-75
2022/03/20 04:39:07;;;;;;;5.03;3.67;;;15.00;60.90;;;;;;2034886;28;20203;-75
2022/03/20 04:40:06;;;;;;;3.90;3.20;;;15.00;60.90;;;;;;2037392;28;20171;-75
2022/03/20 04:41:05;;;;;;;4.68;2.80;;;15.00;60.90;;;;;;2037255;28;20163;-76
2022/03/20 04:42:04;;;;;;;5.43;3.53;;;15.00;60.80;;;;;;2036528;28;20179;-75
2022/03/20 04:43:03;;;;;;;5.53;3.05;;;15.00;60.90;;;;;;2037232;28;20460;-75
2022/03/20 04:44:02;;;;;;;6.27;3.03;;;15.00;60.70;;;;;;2037599;28;20175;-75
2022/03/20 04:45:01;;;;;;;4.50;3.17;;;15.00;60.60;;;;;;2037902;28;20167;-75
2022/03/20 04:46:00;;;;;;;4.88;3.45;;;15.00;60.90;;;;;;2037353;28;20171;-75
2022/03/20 04:46:59;;;;;;;5.70;3.50;;;15.00;60.70;;;;;;2036668;28;20217;-73
2022/03/20 04:58:31;;;;;;;6.25;3.90;;;15.00;60.90;;;;;;2037818;28;20151;-75
2022/03/20 04:59:30;;;;;;;4.47;3.08;;;15.00;60.90;;;;;;2039176;28;20147;-75
2022/03/20 05:00:29;;;;;;;6.00;3.50;;;15.00;60.90;;;;;;2039193;28;20179;-76
2022/03/20 05:01:28;;;;;;;5.95;3.60;;;15.00;60.90;;;;;;2038813;28;20159;-75
2022/03/20 05:02:27;;;;;;;4.63;3.30;;;15.00;60.80;;;;;;2038580;28;20199;-74
2022/03/20 05:03:26;;;;;;;6.15;3.55;;;15.00;60.80;;;;;;2033172;28;20167;-75
2022/03/20 05:04:25;;;;;;;5.10;3.20;;;15.00;60.90;;;;;;2036752;28;20175;-74
2022/03/20 05:05:23;;;;;;;3.87;3.47;;;15.00;60.80;;;;;;2038192;28;20174;-75
2022/03/20 05:06:22;;;;;;;4.23;3.23;;;15.00;60.70;;;;;;2038686;28;20181;-75
2022/03/20 05:07:20;;;;;;;4.70;3.10;;;15.00;60.70;;;;;;2038363;28;20164;-75
2022/03/20 05:08:19;;;;;;;5.43;3.40;;;14.90;60.80;;;;;;2038360;28;20670;-75
2022/03/20 05:13:21;;;;;;;4.57;3.33;;;14.90;61.00;;;;;;2038237;28;20159;-75
2022/03/20 05:14:19;;;;;;;4.55;3.42;;;15.00;60.90;;;;;;2033566;28;20159;-76
2022/03/20 05:15:18;;;;;;;8.97;3.83;;;15.00;60.90;;;;;;2037534;28;20200;-74
2022/03/20 05:16:17;;;;;;;4.33;2.73;;;14.90;60.80;;;;;;2036276;28;20204;-76
2022/03/20 05:17:15;;;;;;;5.77;3.87;;;15.00;61.00;;;;;;2029836;28;20284;-74
2022/03/20 05:18:14;;;;;;;4.70;3.37;;;14.90;60.80;;;;;;2029139;28;20186;-73
2022/03/20 05:19:12;;;;;;;4.10;3.60;;;14.90;60.80;;;;;;2029295;28;20179;-74
2022/03/20 05:20:11;;;;;;;4.60;3.20;;;14.90;60.80;;;;;;2029488;28;20233;-75
2022/03/20 05:21:10;;;;;;;4.70;3.63;;;14.90;60.70;;;;;;2029566;28;20690;-75
2022/03/20 05:22:10;;;;;;;6.50;3.73;;;14.90;60.80;;;;;;2029457;28;20797;-75
2022/03/20 05:23:08;;;;;;;4.90;3.63;;;14.90;60.70;;;;;;2029586;28;20202;-76
2022/03/20 05:24:09;;;;;;;4.80;3.43;;;14.90;60.80;;;;;;2029601;28;20179;-75
2022/03/20 05:25:12;;;;;;;4.75;3.50;;;14.90;60.70;;;;;;2029667;28;20174;-75
2022/03/20 05:26:10;;;;;;;5.50;3.22;;;15.00;60.90;;;;;;2029598;28;20608;-76
2022/03/20 05:27:09;;;;;;;5.67;3.30;;;15.00;60.90;;;;;;2029747;28;20220;-76
2022/03/20 05:28:07;;;;;;;5.00;3.30;;;15.00;60.80;;;;;;2029453;28;20224;-76
2022/03/20 05:29:08;;;;;;;5.30;3.37;;;15.00;60.90;;;;;;2028731;28;20201;-75
2022/03/20 05:30:09;;;;;;;8.52;3.72;;;15.00;60.70;;;;;;2028771;28;20172;-75
2022/03/20 05:31:09;;;;;;;4.60;3.30;;;14.90;60.70;;;;;;2029536;28;20214;-75
2022/03/20 05:32:08;;;;;;;4.95;3.72;;;14.90;60.70;;;;;;2029448;28;20195;-75